Time;durP1;ratioP1;P1;durP2;ratioP2;P2;SDS_P1;SDS_P2;PMS_P1;PMS_P2;Temp;Humidity;BMP_temperature;BMP_pressure;BME280_temperature;BME280_humidity;BME280_pressure;Samples;Min_cycle;Max_cycle;Signal;HPM_P1;HPM_P2
2022/03/15 00:00:34;;;;;;;0.10;0.10;;;;;;;;;;4933266;29;20046;-90
2022/03/15 00:03:00;;;;;;;0.10;0.10;;;;;;;;;;4917283;29;20044;-90
2022/03/15 00:05:26;;;;;;;0.10;0.10;;;;;;;;;;4917438;29;20047;-90
2022/03/15 00:07:52;;;;;;;0.10;0.10;;;;;;;;;;4933078;29;20381;-90
2022/03/15 00:10:18;;;;;;;0.10;0.10;;;;;;;;;;4917274;29;20166;-91
2022/03/15 00:12:44;;;;;;;0.10;0.10;;;;;;;;;;4901647;29;20078;-91
2022/03/15 00:15:10;;;;;;;0.10;0.10;;;;;;;;;;4917328;29;20048;-90
2022/03/15 00:17:38;;;;;;;0.10;0.10;;;;;;;;;;4917330;29;20130;-91
2022/03/15 00:20:05;;;;;;;0.10;0.10;;;;;;;;;;4901490;29;20048;-90
2022/03/15 00:22:35;;;;;;;0.10;0.10;;;;;;;;;;4901215;29;20407;-90
2022/03/15 00:25:05;;;;;;;0.10;0.10;;;;;;;;;;4916872;29;20476;-92
2022/03/15 00:27:33;;;;;;;0.10;0.10;;;;;;;;;;4917250;29;20048;-91
2022/03/15 00:29:59;;;;;;;0.10;0.10;;;;;;;;;;4917510;29;20048;-91
2022/03/15 00:32:25;;;;;;;0.10;0.10;;;;;;;;;;4917013;29;20080;-91
2022/03/15 00:34:51;;;;;;;0.10;0.10;;;;;;;;;;4916160;29;20044;-91
2022/03/15 00:37:18;;;;;;;0.10;0.10;;;;;;;;;;4916879;29;20055;-91
2022/03/15 00:39:44;;;;;;;0.10;0.10;;;;;;;;;;4932704;29;20086;-92
2022/03/15 00:42:10;;;;;;;0.10;0.10;;;;;;;;;;4916159;29;20048;-91
2022/03/15 00:44:36;;;;;;;0.10;0.10;;;;;;;;;;4900762;29;20532;-90
2022/03/15 00:47:02;;;;;;;0.10;0.10;;;;;;;;;;4900891;29;20216;-89
2022/03/15 00:49:28;;;;;;;0.10;0.10;;;;;;;;;;4901137;29;20040;-90
2022/03/15 00:51:54;;;;;;;0.10;0.10;;;;;;;;;;4916692;29;20052;-89
2022/03/15 00:54:21;;;;;;;0.10;0.10;;;;;;;;;;4901039;29;20040;-90
2022/03/15 00:56:47;;;;;;;0.10;0.10;;;;;;;;;;4900777;29;20044;-91
2022/03/15 00:59:15;;;;;;;0.10;0.10;;;;;;;;;;4916652;29;20385;-90
2022/03/15 01:01:41;;;;;;;0.10;0.10;;;;;;;;;;4916454;29;20064;-90
2022/03/15 01:04:07;;;;;;;0.10;0.10;;;;;;;;;;4916540;29;20044;-90
2022/03/15 01:06:34;;;;;;;0.10;0.10;;;;;;;;;;4900533;29;20040;-90
2022/03/15 01:09:00;;;;;;;0.10;0.10;;;;;;;;;;4900931;29;20060;-90
2022/03/15 01:11:26;;;;;;;0.10;0.10;;;;;;;;;;4916642;29;20131;-90
2022/03/15 01:13:52;;;;;;;0.10;0.10;;;;;;;;;;4916947;29;20052;-91
2022/03/15 01:16:18;;;;;;;0.10;0.10;;;;;;;;;;4915874;29;20103;-90
2022/03/15 01:18:44;;;;;;;0.10;0.10;;;;;;;;;;4916673;29;20044;-91
2022/03/15 01:21:13;;;;;;;0.10;0.10;;;;;;;;;;4916428;29;20046;-90
2022/03/15 01:23:40;;;;;;;0.10;0.10;;;;;;;;;;4915743;29;20233;-89
2022/03/15 01:26:06;;;;;;;0.10;0.10;;;;;;;;;;4915590;29;20126;-89
2022/03/15 01:28:32;;;;;;;0.10;0.10;;;;;;;;;;4916367;29;20072;-90
2022/03/15 01:30:57;;;;;;;0.10;0.10;;;;;;;;;;4915752;29;20047;-89
2022/03/15 01:33:23;;;;;;;0.10;0.10;;;;;;;;;;4915553;29;20520;-89
2022/03/15 01:35:49;;;;;;;0.10;0.10;;;;;;;;;;4915612;29;20520;-89
2022/03/15 01:38:15;;;;;;;0.10;0.10;;;;;;;;;;4915671;29;20048;-89
2022/03/15 01:40:41;;;;;;;0.10;0.10;;;;;;;;;;4915680;29;20048;-89
2022/03/15 01:43:08;;;;;;;0.10;0.10;;;;;;;;;;4915754;29;20051;-89
2022/03/15 01:45:34;;;;;;;0.10;0.10;;;;;;;;;;4915816;29;20416;-89
2022/03/15 01:48:02;;;;;;;0.10;0.10;;;;;;;;;;4915760;29;20052;-90
2022/03/15 01:50:28;;;;;;;0.10;0.10;;;;;;;;;;4915528;29;20044;-89
2022/03/15 01:52:54;;;;;;;0.10;0.10;;;;;;;;;;4915435;29;20128;-90
2022/03/15 01:55:20;;;;;;;0.10;0.10;;;;;;;;;;4917966;29;20106;-89
2022/03/15 01:57:47;;;;;;;0.10;0.10;;;;;;;;;;4918864;29;20044;-90
2022/03/15 02:00:14;;;;;;;0.10;0.10;;;;;;;;;;4919385;29;20068;-90
2022/03/15 02:02:40;;;;;;;0.10;0.10;;;;;;;;;;4919074;29;20048;-89
2022/03/15 02:05:06;;;;;;;0.10;0.10;;;;;;;;;;4919073;29;20052;-88
2022/03/15 02:07:32;;;;;;;0.10;0.10;;;;;;;;;;4919108;29;20164;-94
2022/03/15 02:09:58;;;;;;;0.10;0.10;;;;;;;;;;4921240;29;20088;-92
2022/03/15 02:12:24;;;;;;;0.10;0.10;;;;;;;;;;4919264;29;20492;-90
2022/03/15 02:14:50;;;;;;;0.10;0.10;;;;;;;;;;4935220;29;20052;-90
2022/03/15 02:17:16;;;;;;;0.10;0.10;;;;;;;;;;4935149;29;20101;-90
2022/03/15 02:19:43;;;;;;;0.10;0.10;;;;;;;;;;4935070;29;20354;-90
2022/03/15 02:22:09;;;;;;;0.10;0.10;;;;;;;;;;4935424;29;20099;-90
2022/03/15 02:24:38;;;;;;;0.10;0.10;;;;;;;;;;4919002;29;20054;-90
2022/03/15 02:27:04;;;;;;;0.10;0.10;;;;;;;;;;4934829;29;20048;-90
2022/03/15 02:29:30;;;;;;;0.10;0.10;;;;;;;;;;4918848;29;20036;-91
2022/03/15 02:31:56;;;;;;;0.10;0.10;;;;;;;;;;4935029;29;20043;-90
2022/03/15 02:34:22;;;;;;;0.10;0.10;;;;;;;;;;4934617;29;20044;-89
2022/03/15 02:36:48;;;;;;;0.10;0.10;;;;;;;;;;4933874;29;20040;-89
2022/03/15 02:39:14;;;;;;;0.10;0.10;;;;;;;;;;4934488;29;20036;-90
2022/03/15 02:41:41;;;;;;;0.10;0.10;;;;;;;;;;4918445;29;20502;-89
2022/03/15 02:44:07;;;;;;;0.10;0.10;;;;;;;;;;4918697;29;20040;-90
2022/03/15 02:46:34;;;;;;;0.10;0.10;;;;;;;;;;4934434;29;20047;-89
2022/03/15 02:49:00;;;;;;;0.10;0.10;;;;;;;;;;4918511;29;20044;-90
2022/03/15 02:51:26;;;;;;;0.10;0.10;;;;;;;;;;4934948;29;20036;-90
2022/03/15 02:53:54;;;;;;;0.10;0.10;;;;;;;;;;4934614;29;20504;-90
2022/03/15 02:56:21;;;;;;;0.10;0.10;;;;;;;;;;4918768;29;20052;-89
2022/03/15 02:58:47;;;;;;;0.10;0.10;;;;;;;;;;4934358;29;20048;-91
2022/03/15 03:01:13;;;;;;;0.10;0.10;;;;;;;;;;4934314;29;20086;-90
2022/03/15 03:03:39;;;;;;;0.10;0.10;;;;;;;;;;4918247;29;20044;-91
2022/03/15 03:06:05;;;;;;;0.10;0.10;;;;;;;;;;4917910;29;20131;-90
2022/03/15 03:08:32;;;;;;;0.10;0.10;;;;;;;;;;4918342;29;20040;-90
2022/03/15 03:10:59;;;;;;;0.20;0.20;;;;;;;;;;4918466;29;20051;-90
2022/03/15 03:13:26;;;;;;;0.10;0.10;;;;;;;;;;4934086;29;20040;-91
2022/03/15 03:15:54;;;;;;;0.10;0.10;;;;;;;;;;4918189;29;20052;-90
2022/03/15 03:18:20;;;;;;;0.90;0.20;;;;;;;;;;4917749;29;20036;-91
2022/03/15 03:20:46;;;;;;;0.10;0.10;;;;;;;;;;4918145;29;20503;-90
2022/03/15 03:23:15;;;;;;;0.50;0.50;;;;;;;;;;4917922;29;20511;-90
2022/03/15 03:25:41;;;;;;;0.10;0.10;;;;;;;;;;4917919;29;20075;-91
2022/03/15 03:28:08;;;;;;;0.10;0.10;;;;;;;;;;4918164;29;20037;-91
2022/03/15 03:30:36;;;;;;;0.10;0.10;;;;;;;;;;4918279;29;20080;-91
2022/03/15 03:33:02;;;;;;;0.10;0.10;;;;;;;;;;4918374;29;20405;-91
2022/03/15 03:35:30;;;;;;;0.10;0.10;;;;;;;;;;4918018;29;20144;-91
2022/03/15 03:37:56;;;;;;;0.10;0.10;;;;;;;;;;4918099;29;20047;-91
2022/03/15 03:40:22;;;;;;;0.10;0.10;;;;;;;;;;4917462;29;20055;-91
2022/03/15 03:42:48;;;;;;;0.10;0.10;;;;;;;;;;4917999;29;20051;-91
2022/03/15 03:45:14;;;;;;;0.10;0.10;;;;;;;;;;4933415;29;20048;-90
2022/03/15 03:47:40;;;;;;;0.10;0.10;;;;;;;;;;4933380;29;20099;-90
2022/03/15 03:50:08;;;;;;;0.10;0.10;;;;;;;;;;4917760;29;20037;-89
2022/03/15 03:52:34;;;;;;;0.10;0.10;;;;;;;;;;4933703;29;20104;-89
2022/03/15 03:55:00;;;;;;;0.10;0.10;;;;;;;;;;4933668;29;20059;-89
2022/03/15 03:57:26;;;;;;;0.10;0.10;;;;;;;;;;4933849;29;20039;-90
2022/03/15 03:59:52;;;;;;;0.10;0.10;;;;;;;;;;4932958;29;20048;-89
2022/03/15 04:02:18;;;;;;;0.10;0.10;;;;;;;;;;4932730;29;20115;-90
2022/03/15 04:04:45;;;;;;;0.10;0.10;;;;;;;;;;4917010;29;20044;-89
2022/03/15 04:07:11;;;;;;;0.10;0.10;;;;;;;;;;4916896;29;20050;-89
2022/03/15 04:09:37;;;;;;;0.10;0.10;;;;;;;;;;4916788;29;20077;-89
2022/03/15 04:12:05;;;;;;;0.10;0.10;;;;;;;;;;4916811;29;20119;-88
2022/03/15 04:14:31;;;;;;;0.10;0.10;;;;;;;;;;4916790;29;20052;-90
2022/03/15 04:16:57;;;;;;;0.10;0.10;;;;;;;;;;4916478;29;20111;-90
2022/03/15 04:19:22;;;;;;;0.10;0.10;;;;;;;;;;4917055;29;20050;-89
2022/03/15 04:21:48;;;;;;;0.10;0.10;;;;;;;;;;4917018;29;20131;-90
2022/03/15 04:24:17;;;;;;;0.10;0.10;;;;;;;;;;4900973;29;20044;-89
2022/03/15 04:26:47;;;;;;;0.10;0.10;;;;;;;;;;4900817;29;20071;-89
2022/03/15 04:29:13;;;;;;;0.10;0.10;;;;;;;;;;4900769;29;20122;-90
2022/03/15 04:31:39;;;;;;;0.10;0.10;;;;;;;;;;4901068;29;20515;-91
2022/03/15 04:34:05;;;;;;;0.10;0.10;;;;;;;;;;4916603;29;20084;-90
2022/03/15 04:36:31;;;;;;;0.10;0.10;;;;;;;;;;4916755;29;20062;-90
2022/03/15 04:38:58;;;;;;;0.10;0.10;;;;;;;;;;4901059;29;20055;-90
2022/03/15 04:41:24;;;;;;;0.08;0.08;;;;;;;;;;4900315;29;20090;-90
2022/03/15 04:43:50;;;;;;;0.10;0.10;;;;;;;;;;4916255;29;20576;-90
2022/03/15 04:46:17;;;;;;;0.17;0.17;;;;;;;;;;4916692;29;20051;-92
2022/03/15 04:48:43;;;;;;;0.10;0.10;;;;;;;;;;4916819;29;20055;-91
2022/03/15 04:51:09;;;;;;;0.10;0.10;;;;;;;;;;4916997;29;20040;-91
2022/03/15 04:53:35;;;;;;;0.10;0.10;;;;;;;;;;4932547;29;20149;-91
2022/03/15 04:56:01;;;;;;;0.10;0.10;;;;;;;;;;4916786;29;20083;-91
2022/03/15 04:58:27;;;;;;;0.10;0.10;;;;;;;;;;4900737;29;20047;-90
2022/03/15 05:00:53;;;;;;;0.10;0.10;;;;;;;;;;4932315;29;20048;-90
2022/03/15 05:03:19;;;;;;;0.10;0.10;;;;;;;;;;4900674;29;20151;-90
2022/03/15 05:05:45;;;;;;;0.10;0.10;;;;;;;;;;4900289;29;20044;-89
2022/03/15 05:08:11;;;;;;;0.10;0.10;;;;;;;;;;4915926;29;20040;-89
2022/03/15 05:13:21;;;;;;;0.10;0.10;;;;;;;;;;4916309;29;20052;-91
2022/03/15 05:15:48;;;;;;;0.10;0.10;;;;;;;;;;4916124;29;20532;-90
2022/03/15 05:18:14;;;;;;;0.10;0.10;;;;;;;;;;4916147;29;20389;-90
2022/03/15 05:20:40;;;;;;;0.10;0.10;;;;;;;;;;4900142;29;20040;-89
2022/03/15 05:23:06;;;;;;;0.10;0.10;;;;;;;;;;4915532;29;20579;-90
2022/03/15 05:25:32;;;;;;;0.10;0.10;;;;;;;;;;4930982;29;20381;-90
2022/03/15 05:27:58;;;;;;;0.10;0.10;;;;;;;;;;4915725;29;20040;-90
2022/03/15 05:30:24;;;;;;;0.10;0.10;;;;;;;;;;4915611;29;20040;-88
2022/03/15 05:32:50;;;;;;;0.10;0.10;;;;;;;;;;4915422;29;20051;-89
2022/03/15 05:35:16;;;;;;;0.13;0.13;;;;;;;;;;4915997;29;20044;-89
2022/03/15 05:37:42;;;;;;;0.10;0.10;;;;;;;;;;4900199;29;20493;-89
2022/03/15 05:40:09;;;;;;;0.10;0.10;;;;;;;;;;4899811;29;20126;-89
2022/03/15 05:42:35;;;;;;;0.10;0.10;;;;;;;;;;4899669;29;20048;-89
2022/03/15 05:45:01;;;;;;;0.10;0.10;;;;;;;;;;4899890;29;20047;-89
2022/03/15 05:47:27;;;;;;;0.10;0.10;;;;;;;;;;4915684;29;20054;-91
2022/03/15 05:49:53;;;;;;;0.10;0.10;;;;;;;;;;4915712;29;20156;-88
2022/03/15 05:52:19;;;;;;;0.10;0.10;;;;;;;;;;4900304;29;20047;-89
2022/03/15 05:54:45;;;;;;;0.30;0.30;;;;;;;;;;4900147;29;20195;-90
2022/03/15 05:57:11;;;;;;;0.10;0.10;;;;;;;;;;4915882;29;20099;-90
2022/03/15 05:59:37;;;;;;;0.10;0.10;;;;;;;;;;4899902;29;20052;-90
2022/03/15 06:02:03;;;;;;;0.10;0.10;;;;;;;;;;4900038;29;20448;-91
2022/03/15 06:04:29;;;;;;;0.00;0.00;;;;;;;;;;4899881;29;20044;-90
2022/03/15 06:06:55;;;;;;;0.10;0.10;;;;;;;;;;4898993;29;20107;-89
2022/03/15 06:09:23;;;;;;;0.10;0.10;;;;;;;;;;4902854;29;20056;-90
2022/03/15 06:11:51;;;;;;;0.10;0.10;;;;;;;;;;4915494;29;20484;-90
2022/03/15 06:14:18;;;;;;;0.10;0.10;;;;;;;;;;4932022;29;20079;-90
2022/03/15 06:16:44;;;;;;;0.10;0.10;;;;;;;;;;4915401;29;20116;-90
2022/03/15 06:19:10;;;;;;;0.10;0.10;;;;;;;;;;4915461;29;20048;-90
2022/03/15 06:21:36;;;;;;;0.10;0.10;;;;;;;;;;4931357;29;20137;-89
2022/03/15 06:24:02;;;;;;;0.30;0.20;;;;;;;;;;4917020;29;20040;-90
2022/03/15 06:26:28;;;;;;;0.10;0.10;;;;;;;;;;4915638;29;20040;-92
2022/03/15 06:28:55;;;;;;;0.10;0.10;;;;;;;;;;4916215;29;20080;-92
2022/03/15 06:31:21;;;;;;;0.10;0.10;;;;;;;;;;4916053;29;20096;-92
2022/03/15 06:33:47;;;;;;;0.15;0.15;;;;;;;;;;4916401;29;20055;-92
2022/03/15 06:36:15;;;;;;;0.10;0.10;;;;;;;;;;4915940;29;20040;-92
2022/03/15 06:38:41;;;;;;;0.10;0.10;;;;;;;;;;4916147;29;20052;-92
2022/03/15 06:41:07;;;;;;;0.10;0.10;;;;;;;;;;4918427;29;20492;-92
2022/03/15 06:43:34;;;;;;;0.10;0.10;;;;;;;;;;4919037;29;20045;-91
2022/03/15 06:46:00;;;;;;;0.10;0.10;;;;;;;;;;4918711;29;20040;-92
2022/03/15 06:48:26;;;;;;;0.10;0.10;;;;;;;;;;4919044;29;20403;-92
2022/03/15 06:50:53;;;;;;;0.10;0.10;;;;;;;;;;4919852;29;20119;-92
2022/03/15 06:53:20;;;;;;;0.10;0.10;;;;;;;;;;4919031;29;20051;-92
2022/03/15 06:55:47;;;;;;;0.10;0.10;;;;;;;;;;4935137;29;20132;-92
2022/03/15 06:58:14;;;;;;;0.10;0.10;;;;;;;;;;4935447;29;20040;-91
2022/03/15 07:00:40;;;;;;;0.00;0.00;;;;;;;;;;4919659;29;20130;-93
2022/03/15 07:03:06;;;;;;;0.10;0.10;;;;;;;;;;4922930;29;20071;-95
2022/03/15 07:05:32;;;;;;;0.10;0.10;;;;;;;;;;4920403;29;20579;-93
2022/03/15 07:07:58;;;;;;;0.10;0.10;;;;;;;;;;4918683;29;20122;-92
2022/03/15 07:10:24;;;;;;;0.10;0.10;;;;;;;;;;4918759;29;20095;-92
2022/03/15 07:12:50;;;;;;;0.10;0.10;;;;;;;;;;4934588;29;20051;-91
2022/03/15 07:15:20;;;;;;;0.10;0.10;;;;;;;;;;4918636;29;20043;-92
2022/03/15 07:17:51;;;;;;;0.10;0.10;;;;;;;;;;4903431;29;20040;-94
2022/03/15 07:20:17;;;;;;;0.10;0.10;;;;;;;;;;4903317;29;20048;-92
2022/03/15 07:22:43;;;;;;;0.10;0.10;;;;;;;;;;4903432;29;20047;-92
2022/03/15 07:25:09;;;;;;;0.10;0.10;;;;;;;;;;4903192;29;20445;-92
2022/03/15 07:27:35;;;;;;;0.10;0.10;;;;;;;;;;4918673;29;20040;-92
2022/03/15 07:30:01;;;;;;;0.10;0.10;;;;;;;;;;4918119;29;20048;-93
2022/03/15 07:32:27;;;;;;;0.13;0.13;;;;;;;;;;4903074;29;20040;-93
2022/03/15 07:34:53;;;;;;;0.08;0.08;;;;;;;;;;4918694;29;20499;-92
2022/03/15 07:37:19;;;;;;;0.10;0.10;;;;;;;;;;4918783;29;20055;-93
2022/03/15 07:39:45;;;;;;;0.30;0.30;;;;;;;;;;4918969;29;20520;-95
2022/03/15 07:42:11;;;;;;;0.10;0.10;;;;;;;;;;4902831;29;20090;-94
2022/03/15 07:44:38;;;;;;;0.10;0.10;;;;;;;;;;4918767;29;20083;-93
2022/03/15 07:47:04;;;;;;;0.10;0.10;;;;;;;;;;4918682;29;20052;-94
2022/03/15 07:49:30;;;;;;;0.17;0.10;;;;;;;;;;4902763;29;20603;-91
2022/03/15 07:51:56;;;;;;;0.10;0.10;;;;;;;;;;4901575;29;20056;-89
2022/03/15 07:54:22;;;;;;;0.10;0.10;;;;;;;;;;4918142;29;20054;-93
2022/03/15 07:56:52;;;;;;;0.10;0.10;;;;;;;;;;4903769;29;20044;-93
2022/03/15 07:59:18;;;;;;;0.10;0.10;;;;;;;;;;4918027;29;20485;-92
2022/03/15 08:01:44;;;;;;;0.10;0.10;;;;;;;;;;4903034;29;20055;-94
2022/03/15 08:04:10;;;;;;;0.10;0.10;;;;;;;;;;4918144;29;20040;-95
2022/03/15 08:06:36;;;;;;;0.10;0.10;;;;;;;;;;4902765;29;20043;-91
2022/03/15 08:09:05;;;;;;;0.10;0.10;;;;;;;;;;4902458;29;20055;-92
2022/03/15 08:11:32;;;;;;;0.10;0.10;;;;;;;;;;4917231;29;20044;-94
2022/03/15 08:13:59;;;;;;;0.30;0.22;;;;;;;;;;4918809;29;20067;-93
2022/03/15 08:16:25;;;;;;;0.10;0.10;;;;;;;;;;4933591;29;20180;-93
2022/03/15 08:18:51;;;;;;;0.00;0.00;;;;;;;;;;4917571;29;20048;-90
2022/03/15 08:21:17;;;;;;;0.10;0.10;;;;;;;;;;4932613;29;20044;-91
2022/03/15 08:23:44;;;;;;;0.10;0.10;;;;;;;;;;4915440;29;20472;-88
2022/03/15 08:26:10;;;;;;;0.10;0.10;;;;;;;;;;4916396;29;20075;-88
2022/03/15 08:28:36;;;;;;;0.00;0.00;;;;;;;;;;4913164;29;20392;-88
2022/03/15 08:31:02;;;;;;;0.00;0.00;;;;;;;;;;4913371;29;20040;-89
2022/03/15 08:33:28;;;;;;;0.10;0.10;;;;;;;;;;4897393;29;20493;-89
2022/03/15 08:35:54;;;;;;;0.13;0.10;;;;;;;;;;4897572;29;20044;-89
2022/03/15 08:38:20;;;;;;;0.10;0.10;;;;;;;;;;4913670;29;20045;-89
2022/03/15 08:40:46;;;;;;;1.33;0.28;;;;;;;;;;4934913;29;20095;-89
2022/03/15 08:43:12;;;;;;;0.20;0.20;;;;;;;;;;4898025;29;20082;-89
2022/03/15 08:45:38;;;;;;;0.20;0.20;;;;;;;;;;4914764;29;20067;-89
2022/03/15 08:48:05;;;;;;;0.10;0.10;;;;;;;;;;4929411;29;20036;-90
2022/03/15 08:50:31;;;;;;;0.17;0.17;;;;;;;;;;4896692;29;20500;-89
2022/03/15 08:52:57;;;;;;;0.10;0.10;;;;;;;;;;4909268;29;20047;-90
2022/03/15 08:55:24;;;;;;;0.10;0.10;;;;;;;;;;4915900;29;20071;-90
2022/03/15 08:57:50;;;;;;;0.00;0.00;;;;;;;;;;4915994;29;20127;-89
2022/03/15 09:00:16;;;;;;;1.13;0.85;;;;;;;;;;4915904;29;20071;-89
2022/03/15 09:02:42;;;;;;;0.08;0.08;;;;;;;;;;4915807;29;20051;-90
2022/03/15 09:05:08;;;;;;;0.00;0.00;;;;;;;;;;4915880;29;20086;-89
2022/03/15 09:07:36;;;;;;;0.10;0.10;;;;;;;;;;4931605;29;20051;-89
2022/03/15 09:10:02;;;;;;;0.25;0.10;;;;;;;;;;4915643;29;20063;-89
2022/03/15 09:12:28;;;;;;;0.10;0.10;;;;;;;;;;4900088;29;20059;-89
2022/03/15 09:14:54;;;;;;;0.10;0.10;;;;;;;;;;4915808;29;20044;-89
2022/03/15 09:17:20;;;;;;;0.10;0.10;;;;;;;;;;4915716;29;20508;-89
2022/03/15 09:19:50;;;;;;;0.10;0.10;;;;;;;;;;4915741;29;20044;-88
2022/03/15 09:22:16;;;;;;;0.10;0.10;;;;;;;;;;4915453;29;20554;-88
2022/03/15 09:24:42;;;;;;;0.10;0.10;;;;;;;;;;4915876;29;20052;-90
2022/03/15 09:27:08;;;;;;;0.10;0.10;;;;;;;;;;4916208;29;20559;-90
2022/03/15 09:29:36;;;;;;;0.10;0.10;;;;;;;;;;4916063;29;20505;-91
2022/03/15 09:32:03;;;;;;;0.05;0.05;;;;;;;;;;4915586;29;20052;-90
2022/03/15 09:34:30;;;;;;;0.13;0.13;;;;;;;;;;4915812;29;20040;-90
2022/03/15 09:36:59;;;;;;;0.47;0.20;;;;;;;;;;4915595;29;20515;-89
2022/03/15 09:39:25;;;;;;;0.10;0.10;;;;;;;;;;4899989;29;20404;-91
2022/03/15 09:41:51;;;;;;;0.10;0.10;;;;;;;;;;4915666;29;20530;-89
2022/03/15 09:44:18;;;;;;;0.10;0.10;;;;;;;;;;4900026;29;20084;-90
2022/03/15 09:46:44;;;;;;;0.30;0.30;;;;;;;;;;4899920;29;20333;-91
2022/03/15 09:49:10;;;;;;;0.10;0.10;;;;;;;;;;4900710;29;20127;-91
2022/03/15 09:51:36;;;;;;;0.20;0.20;;;;;;;;;;4915871;29;20095;-90
2022/03/15 09:54:06;;;;;;;0.10;0.10;;;;;;;;;;4899690;29;20044;-90
2022/03/15 09:56:38;;;;;;;0.43;0.43;;;;;;;;;;4917082;29;20515;-90
2022/03/15 09:59:04;;;;;;;0.10;0.10;;;;;;;;;;4900375;29;20527;-90
2022/03/15 10:01:30;;;;;;;0.10;0.10;;;;;;;;;;4915935;29;20560;-90
2022/03/15 10:03:56;;;;;;;0.20;0.20;;;;;;;;;;4916054;29;20543;-89
2022/03/15 10:06:23;;;;;;;0.20;0.20;;;;;;;;;;4899415;29;20193;-89
2022/03/15 10:08:49;;;;;;;0.10;0.10;;;;;;;;;;4917356;29;20099;-89
2022/03/15 10:11:16;;;;;;;0.10;0.10;;;;;;;;;;4934096;29;20036;-89
2022/03/15 10:13:42;;;;;;;0.00;0.00;;;;;;;;;;4933841;29;20079;-89
2022/03/15 10:16:08;;;;;;;0.00;0.00;;;;;;;;;;4904072;29;20522;-89
2022/03/15 10:18:33;;;;;;;0.00;0.00;;;;;;;;;;4906086;29;20043;-89
2022/03/15 10:21:04;;;;;;;0.00;0.00;;;;;;;;;;4906288;29;20039;-88
2022/03/15 10:23:35;;;;;;;0.20;0.20;;;;;;;;;;4906091;29;20054;-89
2022/03/15 10:26:04;;;;;;;0.10;0.10;;;;;;;;;;4906137;29;20055;-88
2022/03/15 10:28:31;;;;;;;0.20;0.10;;;;;;;;;;4906280;29;20122;-88
2022/03/15 10:30:57;;;;;;;1.95;0.57;;;;;;;;;;4906490;29;20368;-88
2022/03/15 10:33:23;;;;;;;0.10;0.10;;;;;;;;;;4921553;29;20044;-88
2022/03/15 10:35:49;;;;;;;0.10;0.10;;;;;;;;;;4921431;29;20771;-91
2022/03/15 10:38:15;;;;;;;0.00;0.00;;;;;;;;;;4921938;29;20043;-90
2022/03/15 10:40:42;;;;;;;0.00;0.00;;;;;;;;;;4921615;29;20039;-88
2022/03/15 10:43:12;;;;;;;0.08;0.08;;;;;;;;;;4921676;29;20091;-87
2022/03/15 10:45:41;;;;;;;0.00;0.00;;;;;;;;;;4921356;29;20495;-89
2022/03/15 10:48:17;;;;;;;0.20;0.20;;;;;;;;;;4921230;29;20051;-88
2022/03/15 10:50:57;;;;;;;0.10;0.10;;;;;;;;;;4921413;29;20050;-91
2022/03/15 10:53:25;;;;;;;0.40;0.40;;;;;;;;;;4921332;29;20488;-90
2022/03/15 10:55:52;;;;;;;0.25;0.25;;;;;;;;;;4921614;29;20055;-90
2022/03/15 10:58:21;;;;;;;0.10;0.10;;;;;;;;;;4921983;29;20388;-91
2022/03/15 11:00:50;;;;;;;0.00;0.00;;;;;;;;;;4921583;29;20398;-89
2022/03/15 11:03:23;;;;;;;0.10;0.10;;;;;;;;;;4921453;29;20051;-91
2022/03/15 11:05:50;;;;;;;0.10;0.10;;;;;;;;;;4926520;29;20047;-89
2022/03/15 11:08:17;;;;;;;0.10;0.10;;;;;;;;;;4921799;29;20047;-91
2022/03/15 11:10:46;;;;;;;0.00;0.00;;;;;;;;;;4920793;29;20496;-89
2022/03/15 11:13:12;;;;;;;0.10;0.10;;;;;;;;;;4920554;29;20051;-89
2022/03/15 11:15:41;;;;;;;0.00;0.00;;;;;;;;;;4921067;29;20047;-89
2022/03/15 11:18:07;;;;;;;0.28;0.28;;;;;;;;;;4921282;29;20051;-90
2022/03/15 11:20:37;;;;;;;1.30;0.35;;;;;;;;;;4921601;29;20177;-90
2022/03/15 11:23:04;;;;;;;0.10;0.10;;;;;;;;;;4921612;29;20091;-91
2022/03/15 11:25:35;;;;;;;0.10;0.10;;;;;;;;;;4923829;29;20091;-94
2022/03/15 11:28:01;;;;;;;0.10;0.10;;;;;;;;;;4921725;29;20048;-92
2022/03/15 11:30:27;;;;;;;0.10;0.10;;;;;;;;;;4918232;29;20128;-92
2022/03/15 11:32:53;;;;;;;0.00;0.00;;;;;;;;;;4918602;29;20044;-92
2022/03/15 11:35:22;;;;;;;0.10;0.10;;;;;;;;;;4918818;29;20044;-93
2022/03/15 11:37:48;;;;;;;0.10;0.10;;;;;;;;;;4918799;29;20088;-92
2022/03/15 11:40:14;;;;;;;0.08;0.08;;;;;;;;;;4918557;29;20048;-92
2022/03/15 11:42:43;;;;;;;0.00;0.00;;;;;;;;;;4902760;29;20099;-92
2022/03/15 11:45:13;;;;;;;0.10;0.10;;;;;;;;;;4902690;29;20048;-93
2022/03/15 11:47:42;;;;;;;0.10;0.10;;;;;;;;;;4918568;29;20404;-92
2022/03/15 11:50:11;;;;;;;0.20;0.20;;;;;;;;;;4918337;29;20055;-91
2022/03/15 11:52:40;;;;;;;0.10;0.10;;;;;;;;;;4902924;29;20048;-94
2022/03/15 11:55:16;;;;;;;0.85;0.38;;;;;;;;;;4909907;29;20040;-91
2022/03/15 11:57:43;;;;;;;0.10;0.10;;;;;;;;;;4902462;29;20517;-93
2022/03/15 12:00:09;;;;;;;0.10;0.10;;;;;;;;;;4887033;29;20127;-92
2022/03/15 12:02:39;;;;;;;0.17;0.15;;;;;;;;;;4886746;29;20127;-92
2022/03/15 12:05:17;;;;;;;0.10;0.10;;;;;;;;;;4902442;29;20373;-91
2022/03/15 12:07:50;;;;;;;0.10;0.10;;;;;;;;;;4902452;29;20058;-91
2022/03/15 12:10:27;;;;;;;0.10;0.10;;;;;;;;;;4902701;29;20059;-91
2022/03/15 12:13:02;;;;;;;0.85;0.68;;;;;;;;;;4902662;29;20040;-92
2022/03/15 12:15:42;;;;;;;0.35;0.35;;;;;;;;;;4917754;29;20048;-92
2022/03/15 12:20:47;;;;;;;0.35;0.35;;;;;;;;;;4903548;29;20058;-91
2022/03/15 12:23:19;;;;;;;0.10;0.10;;;;;;;;;;4901475;29;20104;-92
2022/03/15 12:25:51;;;;;;;0.10;0.10;;;;;;;;;;4885863;29;20055;-93
2022/03/15 12:28:24;;;;;;;0.00;0.00;;;;;;;;;;4904351;29;20046;-92
2022/03/15 12:30:52;;;;;;;0.00;0.00;;;;;;;;;;4936796;29;20050;-92
2022/03/15 12:33:25;;;;;;;0.10;0.10;;;;;;;;;;4905006;29;20050;-91
2022/03/15 12:35:51;;;;;;;0.52;0.35;;;;;;;;;;4905076;29;20199;-93
2022/03/15 12:38:17;;;;;;;0.20;0.20;;;;;;;;;;4904203;29;20083;-92
2022/03/15 12:40:43;;;;;;;0.10;0.10;;;;;;;;;;4920234;29;20039;-92
2022/03/15 12:43:10;;;;;;;0.10;0.10;;;;;;;;;;4904542;29;20484;-93
2022/03/15 12:45:45;;;;;;;0.10;0.10;;;;;;;;;;4904596;29;20082;-92
2022/03/15 12:48:11;;;;;;;0.00;0.00;;;;;;;;;;4904808;29;20090;-93
2022/03/15 12:50:37;;;;;;;0.10;0.10;;;;;;;;;;4905189;29;20035;-92
2022/03/15 12:53:14;;;;;;;0.22;0.22;;;;;;;;;;4904731;29;20039;-92
2022/03/15 12:55:41;;;;;;;0.10;0.10;;;;;;;;;;4905456;29;20039;-92
2022/03/15 12:58:09;;;;;;;0.03;0.03;;;;;;;;;;4905001;29;20114;-92
2022/03/15 13:00:39;;;;;;;0.10;0.10;;;;;;;;;;4904540;29;20178;-92
2022/03/15 13:03:09;;;;;;;0.10;0.10;;;;;;;;;;4904747;29;20500;-93
2022/03/15 13:05:37;;;;;;;0.00;0.00;;;;;;;;;;4903850;29;20517;-93
2022/03/15 13:08:04;;;;;;;0.10;0.10;;;;;;;;;;4936226;29;20047;-93
2022/03/15 13:10:43;;;;;;;0.10;0.10;;;;;;;;;;4887860;29;20051;-92
2022/03/15 13:13:13;;;;;;;0.28;0.28;;;;;;;;;;4901412;29;20075;-92
2022/03/15 13:15:49;;;;;;;1.00;0.30;;;;;;;;;;4904587;29;20103;-92
2022/03/15 13:18:21;;;;;;;0.35;0.35;;;;;;;;;;4888587;29;20444;-93
2022/03/15 13:20:47;;;;;;;;;;;;;;;;;;4920485;29;20047;-92
2022/03/15 13:23:13;;;;;;;0.10;0.10;;;;;;;;;;4919703;29;20005;-92
2022/03/15 13:25:45;;;;;;;0.10;0.10;;;;;;;;;;4903999;29;20048;-92
2022/03/15 13:28:23;;;;;;;0.10;0.10;;;;;;;;;;4919760;29;20044;-92
2022/03/15 13:30:50;;;;;;;0.10;0.10;;;;;;;;;;4919800;29;20075;-92
2022/03/15 13:33:30;;;;;;;0.22;0.10;;;;;;;;;;4887660;29;20040;-92
2022/03/15 13:36:14;;;;;;;0.10;0.10;;;;;;;;;;4917489;29;20044;-95
2022/03/15 13:38:45;;;;;;;0.10;0.10;;;;;;;;;;4906971;29;20099;-92
2022/03/15 13:41:13;;;;;;;0.10;0.10;;;;;;;;;;4904273;29;20090;-94
2022/03/15 13:43:42;;;;;;;0.10;0.10;;;;;;;;;;4903996;29;20106;-94
2022/03/15 13:46:09;;;;;;;0.10;0.10;;;;;;;;;;4904286;29;20302;-94
2022/03/15 13:48:38;;;;;;;0.10;0.10;;;;;;;;;;4935714;29;20570;-93
2022/03/15 13:51:14;;;;;;;0.10;0.10;;;;;;;;;;4911581;29;20036;-95
2022/03/15 13:53:42;;;;;;;0.10;0.10;;;;;;;;;;4909466;29;20044;-91
2022/03/15 13:56:09;;;;;;;0.10;0.10;;;;;;;;;;4907465;29;20035;-92
2022/03/15 13:58:34;;;;;;;0.10;0.10;;;;;;;;;;4907346;29;20520;-92
2022/03/15 14:01:03;;;;;;;0.10;0.10;;;;;;;;;;4922914;29;20218;-92
2022/03/15 14:03:30;;;;;;;0.30;0.30;;;;;;;;;;4907463;29;20040;-94
2022/03/15 14:06:03;;;;;;;0.10;0.10;;;;;;;;;;4907957;29;20047;-92
2022/03/15 14:08:29;;;;;;;0.10;0.10;;;;;;;;;;4907125;29;20047;-91
2022/03/15 14:10:55;;;;;;;0.10;0.10;;;;;;;;;;4906018;29;20515;-90
2022/03/15 14:13:22;;;;;;;0.10;0.10;;;;;;;;;;4920815;29;20438;-89
2022/03/15 14:15:49;;;;;;;0.10;0.10;;;;;;;;;;4921858;29;20479;-89
2022/03/15 14:18:24;;;;;;;0.45;0.45;;;;;;;;;;4921283;29;20188;-89
2022/03/15 14:20:51;;;;;;;0.10;0.10;;;;;;;;;;4937594;29;20439;-89
2022/03/15 14:23:17;;;;;;;0.10;0.10;;;;;;;;;;4922086;29;20044;-90
2022/03/15 14:25:43;;;;;;;0.13;0.13;;;;;;;;;;4922082;29;20136;-91
2022/03/15 14:28:09;;;;;;;0.10;0.10;;;;;;;;;;4937981;29;20081;-91
2022/03/15 14:30:36;;;;;;;0.10;0.10;;;;;;;;;;4938484;29;20047;-92
2022/03/15 14:33:06;;;;;;;0.10;0.10;;;;;;;;;;4922704;29;20130;-92
2022/03/15 14:35:34;;;;;;;0.10;0.10;;;;;;;;;;4922090;29;20534;-92
2022/03/15 14:38:07;;;;;;;0.10;0.10;;;;;;;;;;4922178;29;20055;-92
2022/03/15 14:40:41;;;;;;;0.10;0.10;;;;;;;;;;4938444;29;20043;-93
2022/03/15 14:43:07;;;;;;;0.10;0.10;;;;;;;;;;4924426;29;20044;-92
2022/03/15 14:45:35;;;;;;;0.13;0.13;;;;;;;;;;4922315;29;20043;-93
2022/03/15 14:48:01;;;;;;;0.10;0.10;;;;;;;;;;4922814;29;20050;-94